Time;durP1;ratioP1;P1;durP2;ratioP2;P2;SDS_P1;SDS_P2;PMS_P1;PMS_P2;Temp;Humidity;BMP_temperature;BMP_pressure;BME280_temperature;BME280_humidity;BME280_pressure;Samples;Min_cycle;Max_cycle;Signal;HPM_P1;HPM_P2
2022/04/30 00:02:12;;;;;;;9.60;7.63;;;13.20;99.90;;;;;;5055492;28;20052;-79
2022/04/30 00:04:40;;;;;;;14.15;7.90;;;13.40;99.90;;;;;;5055259;28;20029;-77
2022/04/30 00:07:06;;;;;;;11.02;8.45;;;13.40;99.90;;;;;;5055422;28;20021;-78
2022/04/30 00:09:32;;;;;;;13.40;7.95;;;13.40;99.90;;;;;;5056502;28;20021;-79
2022/04/30 00:11:58;;;;;;;9.93;8.88;;;13.30;99.90;;;;;;5055949;28;20045;-79
2022/04/30 00:14:25;;;;;;;10.45;8.52;;;13.20;99.90;;;;;;5055571;28;20020;-78
2022/04/30 00:16:51;;;;;;;14.48;9.38;;;13.20;99.90;;;;;;5060967;28;20025;-79
2022/04/30 00:19:16;;;;;;;13.38;8.40;;;13.10;99.90;;;;;;5055331;28;20044;-79
2022/04/30 00:21:42;;;;;;;13.15;9.15;;;13.10;99.90;;;;;;5056284;28;20029;-77
2022/04/30 00:24:08;;;;;;;11.20;8.50;;;13.00;99.90;;;;;;5053951;28;20489;-79
2022/04/30 00:26:33;;;;;;;9.93;9.02;;;13.00;99.90;;;;;;5058621;28;20432;-78
2022/04/30 00:29:00;;;;;;;9.55;8.48;;;12.90;99.90;;;;;;5058958;28;20025;-78
2022/04/30 00:31:26;;;;;;;9.35;8.45;;;12.90;99.90;;;;;;5054198;28;20476;-78
2022/04/30 00:33:52;;;;;;;10.63;9.50;;;12.90;99.90;;;;;;5054642;28;20051;-77
2022/04/30 00:36:18;;;;;;;10.02;8.45;;;12.90;99.90;;;;;;5055797;28;20021;-79
2022/04/30 00:38:43;;;;;;;10.68;8.80;;;12.90;99.90;;;;;;5052885;28;20549;-78
2022/04/30 00:41:10;;;;;;;10.93;8.40;;;12.90;99.90;;;;;;5054285;28;20164;-79
2022/04/30 00:43:46;;;;;;;11.35;8.30;;;13.00;99.90;;;;;;5055734;28;20456;-78
2022/04/30 00:46:16;;;;;;;9.40;8.60;;;13.00;99.90;;;;;;5052555;28;20025;-78
2022/04/30 00:48:44;;;;;;;8.18;7.47;;;12.90;99.90;;;;;;5054049;28;20013;-79
2022/04/30 00:51:12;;;;;;;8.95;7.97;;;12.90;99.90;;;;;;5055042;28;20029;-79
2022/04/30 00:53:50;;;;;;;9.60;8.00;;;12.90;99.90;;;;;;5054179;28;20021;-78
2022/04/30 00:56:21;;;;;;;9.25;8.45;;;12.90;99.90;;;;;;5056345;28;20103;-78
2022/04/30 00:58:48;;;;;;;8.70;7.25;;;12.90;99.90;;;;;;5057552;28;20055;-78
2022/04/30 01:01:19;;;;;;;9.27;8.23;;;12.90;99.90;;;;;;5057928;28;20172;-78
2022/04/30 01:03:44;;;;;;;8.52;7.72;;;12.90;99.90;;;;;;5053744;28;20013;-78
2022/04/30 01:06:11;;;;;;;8.75;7.70;;;12.90;99.90;;;;;;5056422;28;20048;-78
2022/04/30 01:08:38;;;;;;;9.13;8.32;;;12.90;99.90;;;;;;5052701;28;20021;-79
2022/04/30 01:11:04;;;;;;;10.43;9.52;;;12.80;99.90;;;;;;5055708;28;20053;-79
2022/04/30 01:13:34;;;;;;;11.80;9.98;;;12.80;99.90;;;;;;5054499;28;20113;-79
2022/04/30 01:16:02;;;;;;;11.32;9.85;;;12.80;99.90;;;;;;5069982;28;20096;-78
2022/04/30 01:18:28;;;;;;;12.35;10.45;;;12.70;99.90;;;;;;5054278;28;20075;-79
2022/04/30 01:20:59;;;;;;;13.85;9.90;;;12.80;99.90;;;;;;5054523;28;20023;-78
2022/04/30 01:23:26;;;;;;;13.90;11.80;;;12.70;99.90;;;;;;5055691;28;20017;-79
2022/04/30 01:25:53;;;;;;;13.32;11.73;;;12.60;99.90;;;;;;5055445;28;20025;-78
2022/04/30 01:28:19;;;;;;;15.07;12.68;;;12.60;99.90;;;;;;5070665;28;20007;-79
2022/04/30 01:30:45;;;;;;;15.65;11.85;;;12.60;99.90;;;;;;5070980;28;20025;-78
2022/04/30 01:38:40;;;;;;;18.05;14.45;;;12.40;99.90;;;;;;5051333;28;20028;-78
2022/04/30 01:41:06;;;;;;;18.83;14.57;;;12.40;99.90;;;;;;5055542;28;20474;-78
2022/04/30 01:43:35;;;;;;;19.83;15.00;;;12.40;99.90;;;;;;5060806;28;20047;-79
2022/04/30 01:46:03;;;;;;;25.63;15.95;;;12.30;99.90;;;;;;5052941;28;20021;-78
2022/04/30 01:48:29;;;;;;;20.38;15.05;;;12.30;99.90;;;;;;5057857;28;20112;-78
2022/04/30 01:50:55;;;;;;;17.88;14.20;;;12.30;99.90;;;;;;5064346;28;20021;-79
2022/04/30 01:53:20;;;;;;;24.20;16.60;;;12.30;99.90;;;;;;5057397;28;20103;-78
2022/04/30 01:55:46;;;;;;;24.85;16.15;;;12.20;99.90;;;;;;5054102;28;20155;-79
2022/04/30 01:58:12;;;;;;;25.33;14.55;;;12.20;99.90;;;;;;5059579;28;20036;-78
2022/04/30 02:00:37;;;;;;;21.20;16.40;;;12.20;99.90;;;;;;5055430;28;20280;-78
2022/04/30 02:03:12;;;;;;;20.90;16.45;;;12.20;99.90;;;;;;5060260;28;20048;-79
2022/04/30 02:05:40;;;;;;;22.95;15.93;;;12.20;99.90;;;;;;5054364;28;20028;-78
2022/04/30 02:08:15;;;;;;;21.77;15.93;;;12.20;99.90;;;;;;5056639;28;20031;-78
2022/04/30 02:10:42;;;;;;;24.67;16.98;;;12.20;99.90;;;;;;5055151;28;20025;-79
2022/04/30 02:13:09;;;;;;;20.35;16.10;;;12.20;99.90;;;;;;5052333;28;20216;-77
2022/04/30 02:15:37;;;;;;;24.45;16.45;;;12.20;99.90;;;;;;5053649;28;20477;-78
2022/04/30 02:18:04;;;;;;;21.80;15.68;;;12.10;99.90;;;;;;5075219;28;20028;-78
2022/04/30 02:20:33;;;;;;;28.08;17.50;;;12.10;99.90;;;;;;5054222;28;20051;-78
2022/04/30 02:23:01;;;;;;;17.45;14.25;;;12.10;99.90;;;;;;5052073;28;20033;-79
2022/04/30 02:25:28;;;;;;;18.95;14.60;;;12.10;99.90;;;;;;5055582;28;20017;-78
2022/04/30 02:27:58;;;;;;;18.67;15.90;;;12.10;99.90;;;;;;5051533;28;20021;-78
2022/04/30 02:30:26;;;;;;;22.70;16.25;;;12.10;99.90;;;;;;5049834;28;20481;-79
2022/04/30 02:32:57;;;;;;;22.58;16.48;;;12.10;99.90;;;;;;5044212;28;20049;-77
2022/04/30 02:35:25;;;;;;;25.20;16.83;;;12.10;99.90;;;;;;5053729;28;20096;-79
2022/04/30 02:37:53;;;;;;;19.23;15.88;;;12.10;99.90;;;;;;5067294;28;20025;-78
2022/04/30 02:40:21;;;;;;;24.10;16.17;;;12.10;99.90;;;;;;5053530;28;20102;-77
2022/04/30 02:42:47;;;;;;;21.38;14.85;;;12.10;99.90;;;;;;5051398;28;20427;-78
2022/04/30 02:45:15;;;;;;;19.95;16.08;;;12.10;99.90;;;;;;5051909;28;20028;-78
2022/04/30 02:47:44;;;;;;;18.67;13.70;;;12.00;99.90;;;;;;5051441;28;20020;-78
2022/04/30 02:50:12;;;;;;;15.60;13.57;;;12.00;99.90;;;;;;5076189;28;20024;-78
2022/04/30 02:52:38;;;;;;;17.67;13.55;;;12.00;99.90;;;;;;5053300;28;20024;-78
2022/04/30 02:55:05;;;;;;;17.80;13.63;;;11.90;99.90;;;;;;5053357;28;20021;-80
2022/04/30 03:00:31;;;;;;;20.88;15.02;;;12.00;99.90;;;;;;5054169;28;20032;-78
2022/04/30 03:02:57;;;;;;;16.58;14.00;;;11.90;99.90;;;;;;5053204;28;20025;-79
2022/04/30 03:05:24;;;;;;;19.58;14.75;;;11.80;99.90;;;;;;5065451;28;20028;-78
2022/04/30 03:07:50;;;;;;;17.15;15.35;;;11.90;99.90;;;;;;5051501;28;20441;-79
2022/04/30 03:10:15;;;;;;;22.70;14.75;;;11.80;99.90;;;;;;5052500;28;20041;-79
2022/04/30 03:12:42;;;;;;;20.30;15.88;;;11.80;99.90;;;;;;5050492;28;20043;-78
2022/04/30 03:15:09;;;;;;;21.48;14.75;;;11.80;99.90;;;;;;5053340;28;20017;-79
2022/04/30 03:23:03;;;;;;;24.67;17.88;;;11.70;99.90;;;;;;5052975;28;20409;-78
2022/04/30 03:25:29;;;;;;;22.25;18.02;;;11.70;99.90;;;;;;5058431;28;20051;-78
2022/04/30 03:27:54;;;;;;;22.15;18.42;;;11.70;99.90;;;;;;5050536;28;20021;-79
2022/04/30 03:30:22;;;;;;;24.67;17.42;;;11.70;99.90;;;;;;5052643;28;20054;-78
2022/04/30 03:32:49;;;;;;;23.42;17.92;;;11.60;99.90;;;;;;5051020;28;20021;-78
2022/04/30 03:35:14;;;;;;;25.10;18.65;;;11.60;99.90;;;;;;5070002;28;20048;-78
2022/04/30 03:37:40;;;;;;;26.98;18.52;;;11.70;99.90;;;;;;5052427;28;20021;-78
2022/04/30 03:40:06;;;;;;;23.17;18.70;;;11.60;99.90;;;;;;5058326;28;20039;-79
2022/04/30 03:42:33;;;;;;;27.90;18.35;;;11.60;99.90;;;;;;5056679;28;20028;-77
2022/04/30 03:45:01;;;;;;;23.05;17.23;;;11.60;99.90;;;;;;5055144;28;20031;-78
2022/04/30 03:47:26;;;;;;;30.38;19.80;;;11.50;99.90;;;;;;5056492;28;20388;-78
2022/04/30 03:49:52;;;;;;;28.35;19.70;;;11.50;99.90;;;;;;5057557;28;20108;-79
2022/04/30 03:52:18;;;;;;;28.15;18.35;;;11.50;99.90;;;;;;5056060;28;20063;-78
2022/04/30 03:54:43;;;;;;;29.63;22.80;;;11.50;99.90;;;;;;5060789;28;20044;-77
2022/04/30 03:57:09;;;;;;;29.15;20.38;;;11.40;99.90;;;;;;5068644;28;20044;-78
2022/04/30 03:59:34;;;;;;;25.38;21.05;;;11.40;99.90;;;;;;5058825;28;20062;-77
2022/04/30 04:02:00;;;;;;;26.30;20.40;;;11.40;99.90;;;;;;5055144;28;20052;-79
2022/04/30 04:04:28;;;;;;;33.47;22.33;;;11.30;99.90;;;;;;5058227;28;20481;-78
2022/04/30 04:06:53;;;;;;;35.22;21.90;;;11.30;99.90;;;;;;5069757;28;20025;-78
2022/04/30 04:09:19;;;;;;;31.83;23.42;;;11.30;99.90;;;;;;5069099;28;20139;-78
2022/04/30 04:11:45;;;;;;;32.72;22.92;;;11.30;99.90;;;;;;5054674;28;20017;-79
2022/04/30 04:19:38;;;;;;;23.70;19.33;;;11.20;99.90;;;;;;5053799;28;20031;-79
2022/04/30 04:22:04;;;;;;;33.50;23.65;;;11.10;99.90;;;;;;5055597;28;20017;-78
2022/04/30 04:27:17;;;;;;;32.50;22.77;;;11.20;99.90;;;;;;5034906;28;20037;-79
2022/04/30 04:29:43;;;;;;;29.85;22.85;;;11.20;99.90;;;;;;5061998;28;20013;-79
2022/04/30 04:32:08;;;;;;;31.70;24.00;;;11.10;99.90;;;;;;5048861;28;20055;-78
2022/04/30 04:34:34;;;;;;;30.38;22.27;;;11.10;99.90;;;;;;5060958;28;20449;-79
2022/04/30 04:36:59;;;;;;;37.55;21.48;;;11.10;99.90;;;;;;5055375;28;20464;-79
2022/04/30 04:39:25;;;;;;;33.10;23.00;;;11.10;99.90;;;;;;5058029;28;20512;-78
2022/04/30 04:41:50;;;;;;;29.00;22.25;;;11.10;99.90;;;;;;5055309;28;20055;-78
2022/04/30 04:44:16;;;;;;;32.63;22.02;;;11.10;99.90;;;;;;5061941;28;20039;-79
2022/04/30 04:46:42;;;;;;;27.92;21.77;;;11.10;99.90;;;;;;5053054;28;20469;-79
2022/04/30 04:49:08;;;;;;;30.15;22.48;;;11.10;99.90;;;;;;5060804;28;20021;-78
2022/04/30 04:51:34;;;;;;;32.15;23.85;;;11.00;99.90;;;;;;5052955;28;20024;-79
2022/04/30 04:54:01;;;;;;;34.47;24.13;;;11.10;99.90;;;;;;5055171;28;20021;-78
2022/04/30 04:56:27;;;;;;;36.53;24.05;;;11.10;99.90;;;;;;5054998;28;20029;-79
2022/04/30 04:58:53;;;;;;;28.98;22.67;;;11.10;99.90;;;;;;5055635;28;20032;-78
2022/04/30 05:01:19;;;;;;;31.45;22.88;;;11.10;99.90;;;;;;5052734;28;20024;-79
2022/04/30 05:03:44;;;;;;;38.50;24.48;;;11.20;99.90;;;;;;5058353;28;20024;-79
2022/04/30 05:06:10;;;;;;;33.28;22.45;;;11.20;99.90;;;;;;5051965;28;20075;-78
2022/04/30 05:08:36;;;;;;;32.47;23.65;;;11.10;99.90;;;;;;5053331;28;20474;-78
2022/04/30 05:11:02;;;;;;;32.20;23.25;;;11.10;99.90;;;;;;5053424;28;20017;-78
2022/04/30 05:13:27;;;;;;;31.90;22.70;;;11.10;99.90;;;;;;5056249;28;20023;-79
2022/04/30 05:15:53;;;;;;;30.10;23.02;;;11.10;99.90;;;;;;5053359;28;20067;-78
2022/04/30 05:18:19;;;;;;;32.85;23.08;;;11.00;99.90;;;;;;5055278;28;20023;-79
2022/04/30 05:20:46;;;;;;;31.38;22.85;;;11.00;99.90;;;;;;5053911;28;20120;-79
2022/04/30 05:23:12;;;;;;;29.30;22.60;;;11.10;99.90;;;;;;5057546;28;20445;-78
2022/04/30 05:25:40;;;;;;;30.67;21.67;;;11.00;99.90;;;;;;5053065;28;20036;-79
2022/04/30 05:28:06;;;;;;;33.35;24.45;;;11.00;99.90;;;;;;5054309;28;20021;-78
2022/04/30 05:30:32;;;;;;;31.67;22.52;;;11.10;99.90;;;;;;5053484;28;20374;-78
2022/04/30 05:32:58;;;;;;;32.53;23.92;;;11.10;99.90;;;;;;5054020;28;20027;-78
2022/04/30 05:35:23;;;;;;;33.00;22.80;;;11.20;99.90;;;;;;5054410;28;20092;-77
2022/04/30 05:37:49;;;;;;;35.60;24.17;;;11.20;99.90;;;;;;5055316;28;20029;-78
2022/04/30 05:40:14;;;;;;;32.47;23.25;;;11.30;99.90;;;;;;5057475;28;20485;-78
2022/04/30 05:42:40;;;;;;;30.73;22.52;;;11.20;99.90;;;;;;5055411;28;20076;-78
2022/04/30 05:45:06;;;;;;;25.15;20.98;;;11.30;99.90;;;;;;5055678;28;20029;-77
2022/04/30 05:47:32;;;;;;;25.92;21.50;;;11.20;99.90;;;;;;5053109;28;20025;-77
2022/04/30 05:49:57;;;;;;;29.08;21.33;;;11.20;99.90;;;;;;5058673;28;20036;-78
2022/04/30 05:52:23;;;;;;;32.42;22.75;;;11.30;99.90;;;;;;5056451;28;20072;-78
2022/04/30 05:54:49;;;;;;;27.80;21.00;;;11.20;99.90;;;;;;5055238;28;20367;-78
2022/04/30 05:57:15;;;;;;;29.58;21.85;;;11.30;99.90;;;;;;5060488;28;20027;-78
2022/04/30 05:59:40;;;;;;;30.95;22.75;;;11.30;99.90;;;;;;5054493;28;20021;-79
2022/04/30 06:02:06;;;;;;;30.90;23.33;;;11.40;99.90;;;;;;5053615;28;20021;-77
2022/04/30 06:04:32;;;;;;;26.45;21.05;;;11.40;99.90;;;;;;5052046;28;20094;-77
2022/04/30 06:06:58;;;;;;;26.88;20.63;;;11.40;99.90;;;;;;5054669;28;20682;-79
2022/04/30 06:09:24;;;;;;;31.25;22.20;;;11.40;99.90;;;;;;5052739;28;20024;-78
2022/04/30 06:11:50;;;;;;;30.52;20.95;;;11.40;99.90;;;;;;5055847;28;20049;-78
2022/04/30 06:14:16;;;;;;;25.77;20.05;;;11.30;99.90;;;;;;5054072;28;20096;-78
2022/04/30 06:16:42;;;;;;;26.30;21.20;;;11.20;99.90;;;;;;5055406;28;20033;-77
2022/04/30 06:19:08;;;;;;;30.75;23.13;;;11.30;99.90;;;;;;5065334;28;20400;-78
2022/04/30 06:21:33;;;;;;;29.48;20.23;;;11.30;99.90;;;;;;5056671;28;20068;-78
2022/04/30 06:23:59;;;;;;;25.85;20.27;;;11.40;99.90;;;;;;5056048;28;20013;-78
2022/04/30 06:26:25;;;;;;;32.13;22.48;;;11.40;99.90;;;;;;5057867;28;20021;-78
2022/04/30 06:28:50;;;;;;;27.75;20.90;;;11.40;99.90;;;;;;5055108;28;20020;-78
2022/04/30 06:31:16;;;;;;;24.92;20.30;;;11.50;99.90;;;;;;5055033;28;20017;-78
2022/04/30 06:33:41;;;;;;;25.20;20.48;;;11.60;99.90;;;;;;5057312;28;20017;-78
2022/04/30 06:36:07;;;;;;;24.90;18.73;;;11.70;99.90;;;;;;5060228;28;20019;-80
2022/04/30 06:38:33;;;;;;;25.77;20.52;;;11.70;99.90;;;;;;5054620;28;20053;-77
2022/04/30 06:40:59;;;;;;;30.35;20.55;;;11.80;99.90;;;;;;5054321;28;20029;-78
2022/04/30 06:43:24;;;;;;;22.95;20.55;;;11.80;99.90;;;;;;5055316;28;20504;-78
2022/04/30 06:45:50;;;;;;;23.10;18.95;;;11.90;99.90;;;;;;5060635;28;20021;-77
2022/04/30 06:48:15;;;;;;;26.55;19.83;;;12.00;99.90;;;;;;5054504;28;20098;-78
2022/04/30 06:50:43;;;;;;;24.30;19.50;;;11.90;99.90;;;;;;5053582;28;20040;-78
2022/04/30 06:58:53;;;;;;;21.65;16.80;;;12.20;99.90;;;;;;5051007;28;20031;-78
2022/04/30 07:01:28;;;;;;;19.50;16.92;;;12.20;99.90;;;;;;5057771;28;20036;-78
2022/04/30 07:04:01;;;;;;;21.30;17.67;;;12.00;99.90;;;;;;5053332;28;20017;-77
2022/04/30 07:06:29;;;;;;;21.10;17.98;;;12.10;99.90;;;;;;5052206;28;20522;-77
2022/04/30 07:08:54;;;;;;;23.10;18.52;;;12.00;99.90;;;;;;5055845;28;20117;-78
2022/04/30 07:11:20;;;;;;;23.90;18.58;;;12.00;99.90;;;;;;5053942;28;20017;-79
2022/04/30 07:13:46;;;;;;;22.30;19.25;;;12.00;99.90;;;;;;5054895;28;20019;-78
2022/04/30 07:16:12;;;;;;;20.75;17.13;;;12.00;99.90;;;;;;5053955;28;20021;-77
2022/04/30 07:18:37;;;;;;;20.08;16.85;;;12.00;99.90;;;;;;5053590;28;20559;-78
2022/04/30 07:21:04;;;;;;;23.20;17.80;;;12.10;99.90;;;;;;5075105;28;20035;-78
2022/04/30 07:23:30;;;;;;;23.02;17.95;;;12.10;99.90;;;;;;5062741;28;20021;-78
2022/04/30 07:25:56;;;;;;;19.58;17.08;;;12.00;99.90;;;;;;5057346;28;20044;-78
2022/04/30 07:28:23;;;;;;;23.73;17.70;;;12.10;99.90;;;;;;5055089;28;20456;-78
2022/04/30 07:30:49;;;;;;;23.60;17.42;;;11.90;99.90;;;;;;5071948;28;20017;-77
2022/04/30 07:33:15;;;;;;;19.50;17.15;;;12.00;99.90;;;;;;5053541;28;20447;-79
2022/04/30 07:35:40;;;;;;;19.27;15.50;;;12.10;99.90;;;;;;5059036;28;20096;-78
2022/04/30 07:38:06;;;;;;;19.77;16.10;;;12.10;99.90;;;;;;5051469;28;20056;-78
2022/04/30 07:40:31;;;;;;;20.20;16.30;;;12.10;99.90;;;;;;5053206;28;20027;-78
2022/04/30 07:42:57;;;;;;;17.48;15.68;;;11.80;99.90;;;;;;5053175;28;20120;-77
2022/04/30 07:45:23;;;;;;;22.83;17.48;;;11.80;99.90;;;;;;5065843;28;20021;-77
2022/04/30 07:47:48;;;;;;;22.15;17.38;;;12.00;99.90;;;;;;5055567;28;20025;-78
2022/04/30 07:50:16;;;;;;;19.60;17.38;;;12.10;99.90;;;;;;5051402;28;20104;-77
2022/04/30 07:52:41;;;;;;;22.48;16.88;;;12.20;99.90;;;;;;5053179;28;20526;-79
2022/04/30 07:55:07;;;;;;;20.13;16.88;;;12.40;99.90;;;;;;5056193;28;20013;-78
2022/04/30 07:57:33;;;;;;;21.00;16.25;;;12.20;99.90;;;;;;5055332;28;20056;-77
2022/04/30 07:59:58;;;;;;;19.33;16.27;;;12.30;99.90;;;;;;5052399;28;20036;-78
2022/04/30 08:02:24;;;;;;;19.02;16.30;;;12.20;99.90;;;;;;5053155;28;20021;-78
2022/04/30 08:04:49;;;;;;;17.20;15.38;;;12.30;99.90;;;;;;5057216;28;20082;-79
2022/04/30 08:07:15;;;;;;;19.33;14.88;;;12.40;99.90;;;;;;5054377;28;20031;-77
2022/04/30 08:09:40;;;;;;;17.90;15.98;;;12.30;99.90;;;;;;5051311;28;20028;-78
2022/04/30 08:12:07;;;;;;;19.63;16.83;;;12.40;99.90;;;;;;5057433;28;20388;-79
2022/04/30 08:14:32;;;;;;;17.38;15.18;;;12.10;99.90;;;;;;5056930;28;20493;-78
2022/04/30 08:16:58;;;;;;;17.92;16.13;;;12.20;99.90;;;;;;5054298;28;20032;-77
2022/04/30 08:19:23;;;;;;;16.25;14.52;;;12.10;99.90;;;;;;5051453;28;20025;-78
2022/04/30 08:21:50;;;;;;;16.75;15.13;;;11.90;99.90;;;;;;5057462;28;20028;-78
2022/04/30 08:24:15;;;;;;;17.85;15.77;;;11.90;99.90;;;;;;5058025;28;20480;-80
2022/04/30 08:26:42;;;;;;;17.08;15.35;;;11.90;99.90;;;;;;5054587;28;20036;-79
2022/04/30 08:29:08;;;;;;;18.38;16.45;;;11.90;99.90;;;;;;5062689;28;20016;-78
2022/04/30 08:31:33;;;;;;;18.70;15.98;;;11.90;99.90;;;;;;5061290;28;20498;-80
2022/04/30 08:33:59;;;;;;;17.73;14.82;;;12.10;99.90;;;;;;5054164;28;20017;-77
2022/04/30 08:36:24;;;;;;;16.73;15.02;;;12.10;99.90;;;;;;5056976;28;20021;-77
2022/04/30 08:38:50;;;;;;;18.40;16.00;;;11.90;99.90;;;;;;5061476;28;20501;-79
2022/04/30 08:41:16;;;;;;;19.70;14.98;;;11.90;99.90;;;;;;5061207;28;20476;-79
2022/04/30 08:43:46;;;;;;;17.48;15.32;;;11.90;99.90;;;;;;5065290;28;20082;-77
2022/04/30 08:46:11;;;;;;;17.05;15.27;;;11.90;99.90;;;;;;5057930;28;20032;-79
2022/04/30 08:48:38;;;;;;;18.48;14.38;;;11.90;99.90;;;;;;5056701;28;20021;-78
2022/04/30 08:51:04;;;;;;;17.30;15.57;;;11.90;99.90;;;;;;5055908;28;20349;-78
2022/04/30 08:53:29;;;;;;;18.58;16.85;;;11.90;99.90;;;;;;5056389;28;20100;-78
2022/04/30 08:55:55;;;;;;;16.42;14.48;;;12.00;99.90;;;;;;5055213;28;20032;-78
2022/04/30 08:58:20;;;;;;;16.60;14.90;;;12.10;99.90;;;;;;5053716;28;20041;-79
2022/04/30 09:00:49;;;;;;;16.65;15.02;;;12.10;99.90;;;;;;5056333;28;20060;-79
2022/04/30 09:03:17;;;;;;;15.70;14.10;;;12.00;99.90;;;;;;5056259;28;20021;-77
2022/04/30 09:05:43;;;;;;;15.85;14.25;;;12.00;99.90;;;;;;5058523;28;20104;-79
2022/04/30 09:08:09;;;;;;;15.38;13.85;;;12.00;99.90;;;;;;5072906;28;20128;-78
2022/04/30 09:10:37;;;;;;;15.80;14.02;;;11.90;99.90;;;;;;5055274;28;20016;-78
2022/04/30 09:13:12;;;;;;;15.32;13.88;;;11.80;99.90;;;;;;5054102;28;20116;-78
2022/04/30 09:15:39;;;;;;;14.25;12.85;;;11.60;99.90;;;;;;5057857;28;20487;-77
2022/04/30 09:18:06;;;;;;;15.52;13.50;;;11.60;99.90;;;;;;5055297;28;20126;-79
2022/04/30 09:20:42;;;;;;;15.23;13.63;;;11.40;99.90;;;;;;5060756;28;20739;-78
2022/04/30 09:23:10;;;;;;;14.30;12.80;;;11.50;99.90;;;;;;5055417;28;20040;-78
2022/04/30 09:25:35;;;;;;;14.43;13.02;;;11.50;99.90;;;;;;5054056;28;20024;-78
2022/04/30 09:28:01;;;;;;;14.63;13.13;;;11.40;99.90;;;;;;5069187;28;20397;-77
2022/04/30 09:30:32;;;;;;;14.50;13.00;;;11.40;99.90;;;;;;5054398;28;20021;-79
2022/04/30 09:32:58;;;;;;;;;;;11.40;99.90;;;;;;5060437;28;20009;-78
2022/04/30 09:38:09;;;;;;;14.00;12.45;;;11.40;99.90;;;;;;5054798;28;20814;-77
2022/04/30 09:40:35;;;;;;;11.93;10.70;;;11.40;99.90;;;;;;5050518;28;20032;-78
2022/04/30 09:43:05;;;;;;;12.23;11.00;;;11.30;99.90;;;;;;5052986;28;20121;-75
2022/04/30 09:45:35;;;;;;;14.75;11.65;;;11.40;99.90;;;;;;5052541;28;20021;-81
2022/04/30 09:53:56;;;;;;;13.73;11.40;;;11.30;99.90;;;;;;5050875;28;20032;-76
2022/04/30 09:56:38;;;;;;;11.52;10.35;;;11.40;99.90;;;;;;5046617;28;20040;-76
2022/04/30 09:59:10;;;;;;;11.40;10.30;;;11.50;99.90;;;;;;5048216;28;20027;-75
2022/04/30 10:01:38;;;;;;;13.05;11.77;;;11.50;99.90;;;;;;5049446;28;20029;-73
2022/04/30 10:04:08;;;;;;;11.45;10.35;;;11.50;99.90;;;;;;5061871;28;20067;-79
2022/04/30 10:06:39;;;;;;;11.52;10.50;;;11.50;99.90;;;;;;5048496;28;20013;-74
2022/04/30 10:09:11;;;;;;;11.82;10.75;;;11.60;99.90;;;;;;5051456;28;20357;-73
2022/04/30 10:11:55;;;;;;;10.93;10.02;;;11.60;99.90;;;;;;5066973;28;20548;-74
2022/04/30 10:14:33;;;;;;;10.18;9.27;;;11.70;99.90;;;;;;5052813;28;20100;-75
2022/04/30 10:17:13;;;;;;;11.32;10.23;;;11.80;99.90;;;;;;5049235;28;20074;-77
2022/04/30 10:19:40;;;;;;;9.35;8.45;;;11.90;99.90;;;;;;5049997;28;20017;-74
2022/04/30 10:22:24;;;;;;;9.82;8.88;;;12.00;99.90;;;;;;5051763;28;20021;-75
2022/04/30 10:24:53;;;;;;;10.45;9.35;;;12.10;99.90;;;;;;5046995;28;20504;-75
2022/04/30 10:27:19;;;;;;;9.05;8.25;;;12.20;99.90;;;;;;5050642;28;20029;-73
2022/04/30 10:29:51;;;;;;;8.00;7.30;;;12.20;99.90;;;;;;5050549;28;20020;-79
2022/04/30 10:32:26;;;;;;;7.88;7.18;;;12.00;99.90;;;;;;5049730;28;20048;-80
2022/04/30 10:34:55;;;;;;;8.10;7.40;;;11.80;99.90;;;;;;5056761;28;20021;-80
2022/04/30 10:37:35;;;;;;;8.30;7.50;;;12.00;99.90;;;;;;5054290;28;20097;-78
2022/04/30 10:40:03;;;;;;;8.48;7.60;;;12.20;99.90;;;;;;5052326;28;20025;-79
2022/04/30 10:42:31;;;;;;;10.60;8.45;;;12.30;99.90;;;;;;5053138;28;20048;-79
2022/04/30 10:44:57;;;;;;;8.63;7.82;;;12.70;99.90;;;;;;5052125;28;20032;-80
2022/04/30 10:47:22;;;;;;;7.88;7.18;;;12.70;99.90;;;;;;5067327;28;20494;-76
2022/04/30 10:49:49;;;;;;;8.18;7.47;;;12.70;99.90;;;;;;5051657;28;20186;-79
2022/04/30 10:52:24;;;;;;;7.70;7.00;;;13.20;99.90;;;;;;5052960;28;20078;-78
2022/04/30 10:54:50;;;;;;;5.78;5.05;;;13.40;99.90;;;;;;5053358;28;20013;-77
2022/04/30 10:57:17;;;;;;;5.18;3.95;;;12.90;99.90;;;;;;5053220;28;20114;-80
2022/04/30 10:59:42;;;;;;;4.18;3.88;;;12.60;99.90;;;;;;5049731;28;20029;-77
2022/04/30 11:02:14;;;;;;;4.70;4.30;;;12.40;99.90;;;;;;5052936;28;20025;-77
2022/04/30 11:04:43;;;;;;;3.10;2.90;;;12.30;99.90;;;;;;5052068;28;20023;-77
2022/04/30 11:07:09;;;;;;;2.95;2.50;;;12.20;99.90;;;;;;5050267;28;20397;-77
2022/04/30 11:09:42;;;;;;;2.97;2.78;;;11.90;99.90;;;;;;5052764;28;20409;-77
2022/04/30 11:12:12;;;;;;;3.05;2.75;;;12.00;99.90;;;;;;5046429;28;20021;-77
2022/04/30 11:14:38;;;;;;;3.28;2.97;;;11.80;99.90;;;;;;5050585;28;20107;-77
2022/04/30 11:17:04;;;;;;;4.25;3.85;;;11.90;99.90;;;;;;5052735;28;20460;-78
2022/04/30 11:19:29;;;;;;;5.57;5.07;;;11.90;99.90;;;;;;5051128;28;20020;-77
2022/04/30 11:21:55;;;;;;;3.80;3.50;;;12.00;99.90;;;;;;5048264;28;20029;-77
2022/04/30 11:24:32;;;;;;;4.22;3.92;;;12.10;99.90;;;;;;5051794;28;20029;-79
2022/04/30 11:27:08;;;;;;;3.75;3.45;;;12.20;99.90;;;;;;5051845;28;20059;-76
2022/04/30 11:29:36;;;;;;;4.32;3.88;;;12.10;99.90;;;;;;5052053;28;20096;-76
2022/04/30 11:32:04;;;;;;;4.35;4.05;;;12.10;99.90;;;;;;5051900;28;20017;-78
2022/04/30 11:34:30;;;;;;;4.20;3.80;;;12.20;99.90;;;;;;5047933;28;20106;-77
2022/04/30 11:37:00;;;;;;;4.10;3.80;;;12.30;99.90;;;;;;5044844;28;20513;-78
2022/04/30 11:39:26;;;;;;;5.07;4.03;;;12.50;99.90;;;;;;5047558;28;20017;-78
2022/04/30 11:41:54;;;;;;;4.38;3.97;;;12.70;99.90;;;;;;5051355;28;20108;-78
2022/04/30 11:44:25;;;;;;;4.80;4.32;;;12.90;99.90;;;;;;5051150;28;20032;-79
2022/04/30 11:46:51;;;;;;;;;;;13.20;99.90;;;;;;5052935;28;20500;-77
2022/04/30 11:49:22;;;;;;;3.50;3.30;;;13.60;99.90;;;;;;5067900;28;19904;-78
2022/04/30 11:51:49;;;;;;;3.42;3.22;;;13.70;99.90;;;;;;5051739;28;20020;-77
2022/04/30 11:54:21;;;;;;;3.90;3.60;;;13.80;99.90;;;;;;5052600;28;20025;-78
2022/04/30 11:56:47;;;;;;;3.90;3.60;;;14.20;99.90;;;;;;5049231;28;20504;-79
2022/04/30 11:59:13;;;;;;;4.22;3.92;;;14.10;99.90;;;;;;5051591;28;20036;-78
2022/04/30 12:01:41;;;;;;;4.13;3.83;;;14.00;99.90;;;;;;5057042;28;20033;-77
2022/04/30 12:04:11;;;;;;;3.67;3.38;;;14.10;99.90;;;;;;5057010;28;20036;-77
2022/04/30 12:06:43;;;;;;;3.63;3.38;;;14.50;99.90;;;;;;5054373;28;20025;-77
2022/04/30 12:09:21;;;;;;;3.35;3.15;;;14.00;99.90;;;;;;5076101;28;20030;-79
2022/04/30 12:11:51;;;;;;;4.40;4.00;;;13.60;99.90;;;;;;5056044;28;20526;-78
2022/04/30 12:14:17;;;;;;;3.97;3.67;;;13.50;99.90;;;;;;5058094;28;20045;-77
2022/04/30 12:16:45;;;;;;;4.00;3.70;;;13.40;99.90;;;;;;5056140;28;20489;-76
2022/04/30 12:25:09;;;;;;;4.45;4.10;;;13.30;99.90;;;;;;5055822;28;20067;-77
2022/04/30 12:27:39;;;;;;;4.90;4.50;;;13.20;99.90;;;;;;5051730;28;20108;-79
2022/04/30 12:30:14;;;;;;;5.55;5.05;;;13.20;99.90;;;;;;5054522;28;20013;-77
2022/04/30 12:33:06;;;;;;;5.45;4.63;;;13.10;99.90;;;;;;5055493;28;20112;-81
2022/04/30 12:35:35;;;;;;;6.85;4.35;;;13.70;99.90;;;;;;5047546;28;20033;-78
2022/04/30 12:38:14;;;;;;;4.25;3.95;;;14.30;99.90;;;;;;5052103;28;20045;-83
2022/04/30 12:40:47;;;;;;;4.90;4.05;;;13.90;99.90;;;;;;5072210;28;20366;-80
2022/04/30 12:43:16;;;;;;;4.97;4.57;;;13.60;99.90;;;;;;5056065;28;20029;-80
2022/04/30 12:45:43;;;;;;;5.35;4.85;;;13.50;99.90;;;;;;5081777;28;20020;-78
2022/04/30 12:48:09;;;;;;;5.88;5.28;;;13.30;99.90;;;;;;5061400;28;20485;-78
2022/04/30 12:50:38;;;;;;;5.30;4.80;;;12.90;99.90;;;;;;5056402;28;20021;-82
2022/04/30 12:53:09;;;;;;;6.35;5.68;;;12.40;99.90;;;;;;5057224;28;20167;-79
2022/04/30 12:55:38;;;;;;;5.25;4.85;;;12.50;99.90;;;;;;5054104;28;20046;-79
2022/04/30 12:58:03;;;;;;;6.47;5.68;;;12.30;99.90;;;;;;5055506;28;20098;-80
2022/04/30 13:00:29;;;;;;;6.78;6.18;;;12.20;99.90;;;;;;5054810;28;20763;-77
2022/04/30 13:02:55;;;;;;;6.20;5.70;;;12.20;99.90;;;;;;5059870;28;20024;-76
2022/04/30 13:05:20;;;;;;;4.85;4.45;;;12.10;99.90;;;;;;5064364;28;20023;-79
2022/04/30 13:07:46;;;;;;;5.90;5.30;;;11.90;99.90;;;;;;5055924;28;20147;-79
2022/04/30 13:15:44;;;;;;;8.30;7.53;;;11.70;99.90;;;;;;5060760;28;20098;-79
2022/04/30 13:18:10;;;;;;;9.52;8.73;;;11.60;99.90;;;;;;5065123;28;20082;-77
2022/04/30 13:20:35;;;;;;;9.52;8.63;;;11.50;99.90;;;;;;5059086;28;20025;-78
2022/04/30 13:23:02;;;;;;;10.15;9.15;;;11.30;99.90;;;;;;5055999;28;20043;-80